createdAt,value
2018-04-28T00:00:51.898Z,4.40
2018-04-28T00:01:52.037Z,4.50
2018-04-28T00:02:52.177Z,4.10
2018-04-28T00:03:52.312Z,4.10
2018-04-28T00:04:52.453Z,4.20
2018-04-28T00:05:52.587Z,4.40
2018-04-28T00:06:52.731Z,4.50
2018-04-28T00:07:52.881Z,4.40
2018-04-28T00:08:53.003Z,4.50
2018-04-28T00:09:53.149Z,4.50
2018-04-28T00:10:53.281Z,4.80
2018-04-28T00:11:53.420Z,4.50
2018-04-28T00:12:53.557Z,4.80
2018-04-28T00:13:53.695Z,4.50
2018-04-28T00:14:53.831Z,4.60
2018-04-28T00:15:53.972Z,4.60
2018-04-28T00:16:54.109Z,4.70
2018-04-28T00:17:54.241Z,4.60
2018-04-28T00:18:54.389Z,4.20
2018-04-28T00:19:54.530Z,4.00
2018-04-28T00:20:54.676Z,4.30
2018-04-28T00:21:54.852Z,4.30
2018-04-28T00:22:54.949Z,5.00
2018-04-28T00:23:55.084Z,4.30
2018-04-28T00:24:55.224Z,4.50
2018-04-28T00:25:55.356Z,4.60
2018-04-28T00:26:55.487Z,4.80
2018-04-28T00:27:55.625Z,5.00
2018-04-28T00:28:55.761Z,4.60
2018-04-28T00:29:55.897Z,4.80
2018-04-28T00:30:56.040Z,4.80
2018-04-28T00:31:56.181Z,4.70
2018-04-28T00:32:56.310Z,4.60
2018-04-28T00:33:56.448Z,4.50
2018-04-28T00:34:56.579Z,4.40
2018-04-28T00:35:56.741Z,4.60
2018-04-28T00:36:56.866Z,4.70
2018-04-28T00:37:56.999Z,4.70
2018-04-28T00:38:57.138Z,5.10
2018-04-28T00:39:57.298Z,4.80
2018-04-28T00:40:57.432Z,4.60
2018-04-28T00:41:57.564Z,4.50
2018-04-28T00:42:57.703Z,4.60
2018-04-28T00:43:57.829Z,4.50
2018-04-28T00:44:57.976Z,4.50
2018-04-28T00:45:58.115Z,4.40
2018-04-28T00:46:58.276Z,4.20
2018-04-28T00:47:58.418Z,4.20
2018-04-28T00:48:58.555Z,4.50
2018-04-28T00:49:58.692Z,4.30
2018-04-28T00:50:58.925Z,4.50
2018-04-28T00:51:58.943Z,4.90
2018-04-28T00:52:59.065Z,4.70
2018-04-28T00:53:59.204Z,4.50
2018-04-28T00:54:59.348Z,4.50
2018-04-28T00:55:59.478Z,4.70
2018-04-28T00:56:59.613Z,4.70
2018-04-28T00:57:59.747Z,4.60
2018-04-28T00:58:59.888Z,4.70
2018-04-28T01:00:00.021Z,4.20
2018-04-28T01:01:00.150Z,4.30
2018-04-28T01:02:00.289Z,4.40
2018-04-28T01:03:00.423Z,4.20
2018-04-28T01:04:00.555Z,4.50
2018-04-28T01:05:00.692Z,4.60
2018-04-28T01:06:00.835Z,4.40
2018-04-28T01:07:00.971Z,4.80
2018-04-28T01:08:01.103Z,4.50
2018-04-28T01:09:01.238Z,4.50
2018-04-28T01:10:01.385Z,4.20
2018-04-28T01:11:01.512Z,4.30
2018-04-28T01:12:01.656Z,4.20
2018-04-28T01:13:01.783Z,4.40
2018-04-28T01:14:01.923Z,4.20
2018-04-28T01:15:02.061Z,4.20
2018-04-28T01:16:02.196Z,4.50
2018-04-28T01:17:02.343Z,4.10
2018-04-28T01:18:02.473Z,4.20
2018-04-28T01:19:02.610Z,4.10
2018-04-28T01:20:03.590Z,4.00
2018-04-28T01:21:02.885Z,4.10
2018-04-28T01:22:03.017Z,3.90
2018-04-28T01:23:03.153Z,4.40
2018-04-28T01:24:03.291Z,4.80
2018-04-28T01:25:03.427Z,4.50
2018-04-28T01:26:03.563Z,4.30
2018-04-28T01:27:03.700Z,4.20
2018-04-28T01:28:03.829Z,4.50
2018-04-28T01:29:03.966Z,4.50
2018-04-28T01:30:04.203Z,4.80
2018-04-28T01:31:04.237Z,4.40
2018-04-28T01:32:04.371Z,4.70
2018-04-28T01:33:04.516Z,4.50
2018-04-28T01:34:04.652Z,4.80
2018-04-28T01:35:04.790Z,4.60
2018-04-28T01:36:04.923Z,4.20
2018-04-28T01:37:05.065Z,4.10
2018-04-28T01:38:05.198Z,5.00
2018-04-28T01:39:05.337Z,4.40
2018-04-28T01:40:05.474Z,4.70
2018-04-28T01:41:05.603Z,4.70
2018-04-28T01:42:05.739Z,4.80
2018-04-28T01:43:05.874Z,4.80
2018-04-28T01:44:06.009Z,4.50
2018-04-28T01:45:06.141Z,4.50
2018-04-28T01:46:06.280Z,4.50
2018-04-28T01:47:06.413Z,4.40
2018-04-28T01:48:06.560Z,4.70
2018-04-28T01:49:06.696Z,4.40
2018-04-28T01:50:06.832Z,4.70
2018-04-28T01:51:06.961Z,4.80
2018-04-28T01:52:07.102Z,4.70
2018-04-28T01:53:07.262Z,4.40
2018-04-28T01:54:07.381Z,4.40
2018-04-28T01:55:07.519Z,4.50
2018-04-28T01:56:07.654Z,4.60
2018-04-28T01:57:07.823Z,4.50
2018-04-28T01:58:07.956Z,4.70
2018-04-28T01:59:08.100Z,4.60
2018-04-28T02:00:08.236Z,4.60
2018-04-28T02:01:08.365Z,4.70
2018-04-28T02:02:08.501Z,4.40
2018-04-28T02:03:08.633Z,4.90
2018-04-28T02:04:08.768Z,4.80
2018-04-28T02:05:08.906Z,5.00
2018-04-28T02:06:09.052Z,4.90
2018-04-28T02:07:09.174Z,5.00
2018-04-28T02:08:09.309Z,5.20
2018-04-28T02:09:09.446Z,5.00
2018-04-28T02:10:10.096Z,4.90
2018-04-28T02:11:09.762Z,4.80
2018-04-28T02:12:09.899Z,4.60
2018-04-28T02:13:10.031Z,4.70
2018-04-28T02:14:10.159Z,4.40
2018-04-28T02:15:10.338Z,4.40
2018-04-28T02:16:10.449Z,4.30
2018-04-28T02:17:10.583Z,4.70
2018-04-28T02:18:10.721Z,4.40
2018-04-28T02:19:10.874Z,4.70
2018-04-28T02:20:11.010Z,4.80
2018-04-28T02:21:11.156Z,4.60
2018-04-28T02:22:11.290Z,4.70
2018-04-28T02:23:11.428Z,4.60
2018-04-28T02:24:11.559Z,4.40
2018-04-28T02:25:11.696Z,5.10
2018-04-28T02:26:11.835Z,4.80
2018-04-28T02:27:11.978Z,5.00
2018-04-28T02:28:12.107Z,4.90
2018-04-28T02:29:12.243Z,5.10
2018-04-28T02:30:12.428Z,5.30
2018-04-28T02:31:12.557Z,4.80
2018-04-28T02:32:12.693Z,4.90
2018-04-28T02:33:12.825Z,4.90
2018-04-28T02:34:12.964Z,4.80
2018-04-28T02:35:13.091Z,4.60
2018-04-28T02:36:13.231Z,4.90
2018-04-28T02:37:13.369Z,5.30
2018-04-28T02:38:13.495Z,4.80
2018-04-28T02:39:13.633Z,5.00
2018-04-28T02:40:13.769Z,4.80
2018-04-28T02:41:13.909Z,5.10
2018-04-28T02:42:14.057Z,4.90
2018-04-28T02:43:14.190Z,4.90
2018-04-28T02:44:14.325Z,4.90
2018-04-28T02:45:14.469Z,4.70
2018-04-28T02:46:14.589Z,4.90
2018-04-28T02:47:14.726Z,4.50
2018-04-28T02:48:14.856Z,4.80
2018-04-28T02:49:14.996Z,4.70
2018-04-28T02:50:15.182Z,4.50
2018-04-28T02:51:15.269Z,4.60
2018-04-28T02:52:15.407Z,5.00
2018-04-28T02:53:15.544Z,4.80
2018-04-28T02:54:15.674Z,4.70
2018-04-28T02:55:15.817Z,4.80
2018-04-28T02:56:16.062Z,5.20
2018-04-28T02:57:16.090Z,4.80
2018-04-28T02:58:16.223Z,4.80
2018-04-28T02:59:16.363Z,4.60
2018-04-28T03:00:16.497Z,4.70
2018-04-28T03:01:16.634Z,5.10
2018-04-28T03:02:16.765Z,4.80
2018-04-28T03:03:16.900Z,5.40
2018-04-28T03:04:17.034Z,5.00
2018-04-28T03:05:17.177Z,5.00
2018-04-28T03:06:17.323Z,5.30
2018-04-28T03:07:17.559Z,5.00
2018-04-28T03:08:17.573Z,5.10
2018-04-28T03:09:17.775Z,5.60
2018-04-28T03:10:17.839Z,5.10
2018-04-28T03:11:17.997Z,5.20
2018-04-28T03:12:18.011Z,5.30
2018-04-28T03:13:18.146Z,5.20
2018-04-28T03:14:18.276Z,5.40
2018-04-28T03:15:18.412Z,5.10
2018-04-28T03:16:18.583Z,5.00
2018-04-28T03:17:18.779Z,4.90
2018-04-28T03:18:18.891Z,5.00
2018-04-28T03:19:19.035Z,4.70
2018-04-28T03:20:19.163Z,5.10
2018-04-28T03:21:19.299Z,5.00
2018-04-28T03:22:19.440Z,5.00
2018-04-28T03:23:19.583Z,5.00
2018-04-28T03:24:19.802Z,5.00
2018-04-28T03:25:19.859Z,5.30
2018-04-28T03:26:19.997Z,4.90
2018-04-28T03:27:20.130Z,4.80
2018-04-28T03:28:20.266Z,5.20
2018-04-28T03:29:20.426Z,4.70
2018-04-28T03:30:20.550Z,5.00
2018-04-28T03:31:20.685Z,5.00
2018-04-28T03:32:20.821Z,5.10
2018-04-28T03:33:20.967Z,5.50
2018-04-28T03:34:21.093Z,5.00
2018-04-28T03:35:21.230Z,4.50
2018-04-28T03:36:21.364Z,5.10
2018-04-28T03:37:21.519Z,5.10
2018-04-28T03:38:21.656Z,5.00
2018-04-28T03:39:21.786Z,5.20
2018-04-28T03:40:21.918Z,4.90
2018-04-28T03:41:22.082Z,5.10
2018-04-28T03:42:22.217Z,5.30
2018-04-28T03:43:22.351Z,4.80
2018-04-28T03:44:22.495Z,5.50
2018-04-28T03:45:22.642Z,4.90
2018-04-28T03:46:22.771Z,5.30
2018-04-28T03:47:22.910Z,5.30
2018-04-28T03:48:23.113Z,4.90
2018-04-28T03:49:23.199Z,5.00
2018-04-28T03:50:23.339Z,5.00
2018-04-28T03:51:23.473Z,5.00
2018-04-28T03:52:23.617Z,4.60
2018-04-28T03:53:23.810Z,5.30
2018-04-28T03:54:23.893Z,4.90
2018-04-28T03:55:24.031Z,4.80
2018-04-28T03:56:24.165Z,5.10
2018-04-28T03:57:24.300Z,4.60
2018-04-28T03:58:24.431Z,5.10
2018-04-28T03:59:24.569Z,4.80
2018-04-28T04:00:24.724Z,4.60
2018-04-28T04:01:24.859Z,4.90
2018-04-28T04:02:24.992Z,4.90
2018-04-28T04:03:25.197Z,4.60
2018-04-28T04:05:57.214Z,4.60
2018-04-28T04:06:57.348Z,4.40
2018-04-28T04:07:57.480Z,4.60
2018-04-28T04:08:57.618Z,5.20
2018-04-28T04:09:57.762Z,4.90
2018-04-28T04:10:57.894Z,4.90
2018-04-28T04:11:58.038Z,5.00
2018-04-28T04:12:58.169Z,5.20
2018-04-28T04:13:58.309Z,5.00
2018-04-28T04:14:58.438Z,5.10
2018-04-28T04:15:58.582Z,4.50
2018-04-28T04:16:58.723Z,5.00
2018-04-28T04:17:58.854Z,4.50
2018-04-28T04:18:58.997Z,5.50
2018-04-28T04:19:59.134Z,4.60
2018-04-28T04:20:59.275Z,4.70
2018-04-28T04:21:59.411Z,4.60
2018-04-28T04:22:59.547Z,4.90
2018-04-28T04:23:59.687Z,4.90
2018-04-28T04:24:59.847Z,4.50
2018-04-28T04:25:59.975Z,4.50
2018-04-28T04:27:00.112Z,4.60
2018-04-28T04:28:00.251Z,4.60
2018-04-28T04:29:00.426Z,4.80
2018-04-28T04:30:00.564Z,4.80
2018-04-28T04:31:00.693Z,5.00
2018-04-28T04:32:00.997Z,4.80
2018-04-28T04:33:00.944Z,5.00
2018-04-28T04:34:01.079Z,4.60
2018-04-28T04:35:01.232Z,4.70
2018-04-28T04:36:01.360Z,5.00
2018-04-28T04:37:01.504Z,4.80
2018-04-28T04:38:01.631Z,4.80
2018-04-28T04:39:01.768Z,5.20
2018-04-28T04:40:01.906Z,5.20
2018-04-28T04:41:02.054Z,5.30
2018-04-28T04:42:02.205Z,5.00
2018-04-28T04:43:02.381Z,4.70
2018-04-28T04:44:02.488Z,4.70
2018-04-28T04:45:02.627Z,5.00
2018-04-28T04:46:02.754Z,4.90
2018-04-28T04:47:02.917Z,5.20
2018-04-28T04:48:03.046Z,4.60
2018-04-28T04:49:03.180Z,5.00
2018-04-28T04:50:03.350Z,5.20
2018-04-28T04:51:03.477Z,5.20
2018-04-28T04:52:03.614Z,5.00
2018-04-28T04:53:03.752Z,5.00
2018-04-28T04:54:03.911Z,4.70
2018-04-28T04:55:04.032Z,4.90
2018-04-28T04:56:04.167Z,4.80
2018-04-28T04:57:04.302Z,4.60
2018-04-28T04:58:04.454Z,4.90
2018-04-28T04:59:04.584Z,5.40
2018-04-28T05:00:04.721Z,5.00
2018-04-28T05:01:04.879Z,5.10
2018-04-28T05:02:04.991Z,5.20
2018-04-28T05:03:05.133Z,4.90
2018-04-28T05:04:05.287Z,5.00
2018-04-28T05:05:05.424Z,5.10
2018-04-28T05:06:05.556Z,5.10
2018-04-28T05:07:05.691Z,4.60
2018-04-28T05:08:05.823Z,4.90
2018-04-28T05:09:05.957Z,4.90
2018-04-28T05:10:06.094Z,4.60
2018-04-28T05:11:06.230Z,4.90
2018-04-28T05:12:06.368Z,5.10
2018-04-28T05:13:06.496Z,5.00
2018-04-28T05:14:06.625Z,5.20
2018-04-28T05:15:06.761Z,5.10
2018-04-28T05:16:06.899Z,5.40
2018-04-28T05:17:07.033Z,5.00
2018-04-28T05:18:07.168Z,5.30
2018-04-28T05:19:07.385Z,5.40
2018-04-28T05:20:07.437Z,5.30
2018-04-28T05:21:07.581Z,4.60
2018-04-28T05:22:07.725Z,5.00
2018-04-28T05:23:07.863Z,5.30
2018-04-28T05:24:07.993Z,5.00
2018-04-28T05:25:08.125Z,4.80
2018-04-28T05:26:08.259Z,4.90
2018-04-28T05:27:08.387Z,4.70
2018-04-28T05:28:08.526Z,5.20
2018-04-28T05:29:08.659Z,5.00
2018-04-28T05:30:08.790Z,4.60
2018-04-28T05:31:08.928Z,5.00
2018-04-28T05:32:09.058Z,5.00
2018-04-28T05:33:09.206Z,5.00
2018-04-28T05:34:09.357Z,4.70
2018-04-28T05:35:09.490Z,5.00
2018-04-28T05:36:09.633Z,4.70
2018-04-28T05:37:09.776Z,5.20
2018-04-28T05:38:09.907Z,4.70
2018-04-28T05:39:10.043Z,4.80
2018-04-28T05:40:10.176Z,5.10
2018-04-28T05:41:10.307Z,5.10
2018-04-28T05:42:10.442Z,5.10
2018-04-28T05:43:10.593Z,4.70
2018-04-28T05:44:10.726Z,5.30
2018-04-28T05:45:10.860Z,5.10
2018-04-28T05:46:11.001Z,4.80
2018-04-28T05:47:11.153Z,4.80
2018-04-28T05:48:11.280Z,4.90
2018-04-28T05:49:11.411Z,4.70
2018-04-28T05:50:11.548Z,5.10
2018-04-28T05:51:11.698Z,4.80
2018-04-28T05:52:11.832Z,4.70
2018-04-28T05:53:11.975Z,4.70
2018-04-28T05:54:12.107Z,5.00
2018-04-28T05:55:12.234Z,5.00
2018-04-28T05:56:12.374Z,5.00
2018-04-28T05:57:12.529Z,4.90
2018-04-28T05:58:12.655Z,5.20
2018-04-28T05:59:12.790Z,6.10
2018-04-28T06:00:12.964Z,7.00
2018-04-28T06:01:13.088Z,5.90
2018-04-28T06:02:13.237Z,5.30
2018-04-28T06:03:13.350Z,4.80
2018-04-28T06:04:13.511Z,5.20
2018-04-28T06:05:13.637Z,4.90
2018-04-28T06:06:13.775Z,5.10
2018-04-28T06:07:13.913Z,5.10
2018-04-28T06:08:14.085Z,4.90
2018-04-28T06:09:14.212Z,4.80
2018-04-28T06:10:14.345Z,5.50
2018-04-28T06:11:14.484Z,6.30
2018-04-28T06:12:14.668Z,6.60
2018-04-28T06:13:14.801Z,7.40
2018-04-28T06:14:15.023Z,5.70
2018-04-28T06:15:15.097Z,6.00
2018-04-28T06:16:15.232Z,5.40
2018-04-28T06:17:15.363Z,6.20
2018-04-28T06:18:15.495Z,5.80
2018-04-28T06:19:15.628Z,5.30
2018-04-28T06:20:15.792Z,5.30
2018-04-28T06:21:15.917Z,5.50
2018-04-28T06:22:16.058Z,5.50
2018-04-28T06:23:16.196Z,5.20
2018-04-28T06:24:16.363Z,5.20
2018-04-28T06:25:16.494Z,4.60
2018-04-28T06:26:16.712Z,4.70
2018-04-28T06:27:16.721Z,4.90
2018-04-28T06:28:16.857Z,4.60
2018-04-28T06:29:16.987Z,5.00
2018-04-28T06:30:17.124Z,5.90
2018-04-28T06:31:17.263Z,5.80
2018-04-28T06:32:17.402Z,7.00
2018-04-28T06:33:17.538Z,5.70
2018-04-28T06:34:17.674Z,5.40
2018-04-28T06:35:17.810Z,5.10
2018-04-28T06:36:17.953Z,6.60
2018-04-28T06:37:18.080Z,8.60
2018-04-28T06:38:18.220Z,12.80
2018-04-28T06:39:18.359Z,14.80
2018-04-28T06:40:18.494Z,10.40
2018-04-28T06:41:18.687Z,7.50
2018-04-28T06:42:18.765Z,8.80
2018-04-28T06:43:18.902Z,8.90
2018-04-28T06:44:19.043Z,6.60
2018-04-28T06:45:19.174Z,4.60
2018-04-28T06:46:19.325Z,3.20
2018-04-28T06:47:19.467Z,3.70
2018-04-28T06:48:19.595Z,3.60
2018-04-28T06:49:19.735Z,3.10
2018-04-28T06:50:19.872Z,3.90
2018-04-28T06:51:20.006Z,3.70
2018-04-28T06:52:20.147Z,5.00
2018-04-28T06:53:20.283Z,4.00
2018-04-28T06:54:20.430Z,4.00
2018-04-28T06:55:20.584Z,3.80
2018-04-28T06:56:20.785Z,3.90
2018-04-28T06:57:20.914Z,3.90
2018-04-28T06:58:21.124Z,4.10
2018-04-28T06:59:21.136Z,3.50
2018-04-28T07:00:21.281Z,3.60
2018-04-28T07:01:21.414Z,3.90
2018-04-28T07:02:21.547Z,3.60
2018-04-28T07:03:21.700Z,3.70
2018-04-28T07:04:21.835Z,3.70
2018-04-28T07:05:21.978Z,3.30
2018-04-28T07:06:22.103Z,3.70
2018-04-28T07:07:22.254Z,3.20
2018-04-28T07:08:22.397Z,3.20
2018-04-28T07:09:22.538Z,3.40
2018-04-28T07:10:22.668Z,3.40
2018-04-28T07:11:22.800Z,3.30
2018-04-28T07:12:22.932Z,2.80
2018-04-28T07:13:23.070Z,3.50
2018-04-28T07:14:23.208Z,3.80
2018-04-28T07:15:23.370Z,3.50
2018-04-28T07:16:23.498Z,3.30
2018-04-28T07:17:23.638Z,3.20
2018-04-28T07:18:23.785Z,3.50
2018-04-28T07:19:23.947Z,3.40
2018-04-28T07:20:24.075Z,3.10
2018-04-28T07:21:24.210Z,3.10
2018-04-28T07:22:24.349Z,3.20
2018-04-28T07:23:24.490Z,3.50
2018-04-28T07:24:24.621Z,3.60
2018-04-28T07:25:24.760Z,3.30
2018-04-28T07:26:24.896Z,3.40
2018-04-28T07:27:25.048Z,3.20
2018-04-28T07:28:25.176Z,3.00
2018-04-28T07:29:25.312Z,3.60
2018-04-28T07:30:25.454Z,3.30
2018-04-28T07:31:25.621Z,3.60
2018-04-28T07:32:25.754Z,3.90
2018-04-28T07:33:25.890Z,2.80
2018-04-28T07:34:26.030Z,3.40
2018-04-28T07:35:26.171Z,2.80
2018-04-28T07:36:26.305Z,3.60
2018-04-28T07:37:26.440Z,3.70
2018-04-28T07:38:26.578Z,3.60
2018-04-28T07:39:27.325Z,2.90
2018-04-28T07:40:26.866Z,2.90
2018-04-28T07:41:27.001Z,3.20
2018-04-28T07:42:27.178Z,3.50
2018-04-28T07:43:27.339Z,3.10
2018-04-28T07:44:27.479Z,3.20
2018-04-28T07:45:27.626Z,3.10
2018-04-28T07:46:27.757Z,3.10
2018-04-28T07:47:27.905Z,3.20
2018-04-28T07:48:28.030Z,3.20
2018-04-28T07:49:28.165Z,2.90
2018-04-28T07:50:28.303Z,3.20
2018-04-28T07:51:28.450Z,3.10
2018-04-28T07:52:28.596Z,3.60
2018-04-28T07:53:28.745Z,3.30
2018-04-28T07:54:28.877Z,2.90
2018-04-28T07:55:29.026Z,3.40
2018-04-28T07:56:29.164Z,3.50
2018-04-28T07:57:29.302Z,2.90
2018-04-28T07:58:29.446Z,3.10
2018-04-28T07:59:29.573Z,3.30
2018-04-28T08:00:29.708Z,3.30
2018-04-28T08:01:29.855Z,3.30
2018-04-28T08:02:29.986Z,3.50
2018-04-28T08:03:30.132Z,3.20
2018-04-28T08:04:30.297Z,3.30
2018-04-28T08:05:30.432Z,3.40
2018-04-28T08:06:30.571Z,3.50
2018-04-28T08:07:30.742Z,3.90
2018-04-28T08:08:30.877Z,3.00
2018-04-28T08:09:31.007Z,3.30
2018-04-28T08:10:31.143Z,3.00
2018-04-28T08:11:31.320Z,3.30
2018-04-28T08:12:31.434Z,3.10
2018-04-28T08:13:31.570Z,2.90
2018-04-28T08:14:31.699Z,3.10
2018-04-28T08:15:31.838Z,3.00
2018-04-28T08:16:31.978Z,3.20
2018-04-28T08:17:32.114Z,3.20
2018-04-28T08:18:32.264Z,3.30
2018-04-28T08:19:32.406Z,2.80
2018-04-28T08:20:32.541Z,3.20
2018-04-28T08:21:32.677Z,5.10
2018-04-28T08:22:32.819Z,3.10
2018-04-28T08:23:33.005Z,3.30
2018-04-28T08:24:33.125Z,3.40
2018-04-28T08:25:33.269Z,3.20
2018-04-28T08:26:33.438Z,3.10
2018-04-28T08:27:33.564Z,3.20
2018-04-28T08:28:33.710Z,3.80
2018-04-28T08:29:33.922Z,3.60
2018-04-28T08:30:33.991Z,3.10
2018-04-28T08:31:34.126Z,3.30
2018-04-28T08:32:34.278Z,2.80
2018-04-28T08:33:34.415Z,2.90
2018-04-28T08:34:34.557Z,2.90
2018-04-28T08:35:35.359Z,3.20
2018-04-28T08:36:34.886Z,3.10
2018-04-28T08:37:35.023Z,3.30
2018-04-28T08:38:35.162Z,3.20
2018-04-28T08:39:35.297Z,3.10
2018-04-28T08:40:35.438Z,2.80
2018-04-28T08:41:35.573Z,2.60
2018-04-28T08:42:35.714Z,2.60
2018-04-28T08:43:35.851Z,2.60
2018-04-28T08:44:35.985Z,2.70
2018-04-28T08:45:36.203Z,3.10
2018-04-28T08:46:36.264Z,3.00
2018-04-28T08:47:36.399Z,3.00
2018-04-28T08:48:36.537Z,2.80
2018-04-28T08:49:36.673Z,3.00
2018-04-28T08:50:36.809Z,2.90
2018-04-28T08:51:36.946Z,3.20
2018-04-28T08:52:37.092Z,2.80
2018-04-28T08:53:37.228Z,2.80
2018-04-28T08:54:37.363Z,2.70
2018-04-28T08:55:37.501Z,2.90
2018-04-28T08:56:37.699Z,2.70
2018-04-28T08:57:37.785Z,3.30
2018-04-28T08:58:37.928Z,5.00
2018-04-28T08:59:38.072Z,3.60
2018-04-28T09:00:38.211Z,4.60
2018-04-28T09:01:38.368Z,3.80
2018-04-28T09:02:38.501Z,3.90
2018-04-28T09:03:38.692Z,3.20
2018-04-28T09:04:38.805Z,3.10
2018-04-28T09:05:38.929Z,2.70
2018-04-28T09:06:39.064Z,2.80
2018-04-28T09:07:39.202Z,2.70
2018-04-28T09:08:39.399Z,2.60
2018-04-28T09:09:39.471Z,2.80
2018-04-28T09:10:39.605Z,3.50
2018-04-28T09:11:39.740Z,2.90
2018-04-28T09:12:39.891Z,3.70
2018-04-28T09:13:40.023Z,2.80
2018-04-28T09:14:40.161Z,2.30
2018-04-28T09:15:40.298Z,2.70
2018-04-28T09:16:40.460Z,2.70
2018-04-28T09:17:40.598Z,2.70
2018-04-28T09:18:40.734Z,2.60
2018-04-28T09:19:40.898Z,2.80
2018-04-28T09:20:41.054Z,3.20
2018-04-28T09:21:41.204Z,2.70
2018-04-28T09:22:41.335Z,2.90
2018-04-28T09:23:41.490Z,3.00
2018-04-28T09:24:41.626Z,3.30
2018-04-28T09:25:41.763Z,3.00
2018-04-28T09:26:41.920Z,3.00
2018-04-28T09:27:42.074Z,3.10
2018-04-28T09:28:42.209Z,3.40
2018-04-28T09:29:42.351Z,3.00
2018-04-28T09:30:42.512Z,2.70
2018-04-28T09:31:42.653Z,3.20
2018-04-28T09:32:42.795Z,3.70
2018-04-28T09:33:42.939Z,3.20
2018-04-28T09:34:43.131Z,2.90
2018-04-28T09:35:43.238Z,2.70
2018-04-28T09:36:43.374Z,3.00
2018-04-28T09:37:43.512Z,2.50
2018-04-28T09:38:43.675Z,3.50
2018-04-28T09:39:43.807Z,3.40
2018-04-28T09:40:43.947Z,2.80
2018-04-28T09:41:44.107Z,3.00
2018-04-28T09:42:44.246Z,3.50
2018-04-28T09:43:44.388Z,2.90
2018-04-28T09:44:44.529Z,2.40
2018-04-28T09:45:44.663Z,2.70
2018-04-28T09:46:44.864Z,2.70
2018-04-28T09:47:44.872Z,2.50
2018-04-28T09:48:45.014Z,2.80
2018-04-28T09:49:45.150Z,2.70
2018-04-28T09:50:45.290Z,2.60
2018-04-28T09:51:45.425Z,2.80
2018-04-28T09:52:45.580Z,2.60
2018-04-28T09:53:45.709Z,2.70
2018-04-28T09:54:45.854Z,2.60
2018-04-28T09:55:45.986Z,2.50
2018-04-28T09:56:46.124Z,3.10
2018-04-28T09:57:46.265Z,2.90
2018-04-28T09:58:46.409Z,2.80
2018-04-28T09:59:46.549Z,3.20
2018-04-28T10:00:46.695Z,3.00
2018-04-28T10:01:46.829Z,3.30
2018-04-28T10:02:46.969Z,2.90
2018-04-28T10:03:47.110Z,2.60
2018-04-28T10:04:47.251Z,2.70
2018-04-28T10:05:47.396Z,2.60
2018-04-28T10:06:47.527Z,2.60
2018-04-28T10:07:47.677Z,2.50
2018-04-28T10:08:47.822Z,2.90
2018-04-28T10:09:47.967Z,2.90
2018-04-28T10:10:48.111Z,2.80
2018-04-28T10:11:48.256Z,2.80
2018-04-28T10:12:48.471Z,2.90
2018-04-28T10:13:48.531Z,3.00
2018-04-28T10:14:48.668Z,2.80
2018-04-28T10:15:48.816Z,2.50
2018-04-28T10:16:48.962Z,2.70
2018-04-28T10:17:49.105Z,2.90
2018-04-28T10:18:49.241Z,2.90
2018-04-28T10:19:49.391Z,2.50
2018-04-28T10:20:49.551Z,3.40
2018-04-28T10:21:49.722Z,3.10
2018-04-28T10:22:49.827Z,3.50
2018-04-28T10:23:49.975Z,3.10
2018-04-28T10:24:50.105Z,3.70
2018-04-28T10:25:50.244Z,3.00
2018-04-28T10:26:50.392Z,2.70
2018-04-28T10:27:50.546Z,3.60
2018-04-28T10:28:50.674Z,3.20
2018-04-28T10:29:50.824Z,6.00
2018-04-28T10:30:51.054Z,9.20
2018-04-28T10:31:51.166Z,13.00
2018-04-28T10:32:51.259Z,9.20
2018-04-28T10:33:51.445Z,3.20
2018-04-28T10:34:51.596Z,3.20
2018-04-28T10:35:51.749Z,3.80
2018-04-28T10:36:51.881Z,4.30
2018-04-28T10:37:52.022Z,2.90
2018-04-28T10:38:52.160Z,3.90
2018-04-28T10:39:52.311Z,3.00
2018-04-28T10:40:52.448Z,3.50
2018-04-28T10:41:52.585Z,3.30
2018-04-28T10:42:52.737Z,2.80
2018-04-28T10:43:52.874Z,2.60
2018-04-28T10:44:53.020Z,3.30
2018-04-28T10:45:53.209Z,2.80
2018-04-28T10:46:53.424Z,2.90
2018-04-28T10:47:53.507Z,3.00
2018-04-28T10:48:53.648Z,2.80
2018-04-28T10:49:53.793Z,2.60
2018-04-28T10:50:53.921Z,2.50
2018-04-28T10:51:54.062Z,3.50
2018-04-28T10:52:54.193Z,2.70
2018-04-28T10:53:54.436Z,2.70
2018-04-28T10:54:54.485Z,2.70
2018-04-28T10:55:54.623Z,2.70
2018-04-28T10:56:54.762Z,2.60
2018-04-28T10:57:54.925Z,2.80
2018-04-28T10:58:55.082Z,2.90
2018-04-28T10:59:55.219Z,2.60
2018-04-28T11:00:55.447Z,2.40
2018-04-28T11:01:55.454Z,2.80
2018-04-28T11:02:55.601Z,2.80
2018-04-28T11:03:55.742Z,2.40
2018-04-28T11:04:55.901Z,2.70
2018-04-28T11:05:56.056Z,3.20
2018-04-28T11:06:56.190Z,2.60
2018-04-28T11:07:56.328Z,2.60
2018-04-28T11:08:56.472Z,2.40
2018-04-28T11:09:56.623Z,2.40
2018-04-28T11:10:56.765Z,3.40
2018-04-28T11:11:56.931Z,2.50
2018-04-28T11:12:57.068Z,3.10
2018-04-28T11:13:57.201Z,2.60
2018-04-28T11:14:57.344Z,2.70
2018-04-28T11:15:57.503Z,2.20
2018-04-28T11:16:57.636Z,2.40
2018-04-28T11:17:57.774Z,2.40
2018-04-28T11:18:57.917Z,2.20
2018-04-28T11:19:58.139Z,2.60
2018-04-28T11:20:58.213Z,2.30
2018-04-28T11:21:58.348Z,2.60
2018-04-28T11:22:58.615Z,2.40
2018-04-28T11:23:58.633Z,2.60
2018-04-28T11:24:58.764Z,2.20
2018-04-28T11:25:58.903Z,2.70
2018-04-28T11:26:59.042Z,2.60
2018-04-28T11:27:59.182Z,2.20
2018-04-28T11:28:59.324Z,2.40
2018-04-28T11:29:59.452Z,2.30
2018-04-28T11:30:59.594Z,2.60
2018-04-28T11:31:59.746Z,2.40
2018-04-28T11:32:59.927Z,2.40
2018-04-28T11:34:00.029Z,2.80
2018-04-28T11:35:00.173Z,3.30
2018-04-28T11:36:00.326Z,5.30
2018-04-28T11:37:00.473Z,4.70
2018-04-28T11:38:00.614Z,4.90
2018-04-28T11:39:00.755Z,4.90
2018-04-28T11:40:00.894Z,3.00
2018-04-28T11:41:01.030Z,2.30
2018-04-28T11:42:01.199Z,2.80
2018-04-28T11:43:01.317Z,2.50
2018-04-28T11:44:01.517Z,3.00
2018-04-28T11:45:01.618Z,2.20
2018-04-28T11:46:01.765Z,2.50
2018-04-28T11:47:01.910Z,2.50
2018-04-28T11:48:02.037Z,2.40
2018-04-28T11:49:02.199Z,2.40
2018-04-28T11:50:02.331Z,2.80
2018-04-28T11:51:02.478Z,2.40
2018-04-28T11:52:02.625Z,2.40
2018-04-28T11:53:02.761Z,2.40
2018-04-28T11:54:02.903Z,2.40
2018-04-28T11:55:03.054Z,2.50
2018-04-28T11:56:03.199Z,2.50
2018-04-28T11:57:03.421Z,2.40
2018-04-28T11:58:03.416Z,2.50
2018-04-28T11:59:03.565Z,2.40
2018-04-28T12:00:03.702Z,2.40
2018-04-28T12:01:03.871Z,2.40
2018-04-28T12:02:04.018Z,2.40
2018-04-28T12:03:04.154Z,2.30
2018-04-28T12:04:04.295Z,2.40
2018-04-28T12:05:04.442Z,2.50
2018-04-28T12:06:04.574Z,2.00
2018-04-28T12:07:04.724Z,2.40
2018-04-28T12:08:04.861Z,2.40
2018-04-28T12:09:04.990Z,2.20
2018-04-28T12:10:05.139Z,2.80
2018-04-28T12:11:05.279Z,2.00
2018-04-28T12:12:05.433Z,2.00
2018-04-28T12:13:05.596Z,2.30
2018-04-28T12:14:05.730Z,2.70
2018-04-28T12:15:05.873Z,2.70
2018-04-28T12:16:06.013Z,2.60
2018-04-28T12:17:06.153Z,2.40
2018-04-28T12:18:06.297Z,2.50
2018-04-28T12:19:06.442Z,2.30
2018-04-28T12:20:06.584Z,2.30
2018-04-28T12:21:06.798Z,2.10
2018-04-28T12:22:06.862Z,2.30
2018-04-28T12:23:07.007Z,2.20
2018-04-28T12:24:07.155Z,2.00
2018-04-28T12:25:07.299Z,2.00
2018-04-28T12:26:07.440Z,2.20
2018-04-28T12:27:07.588Z,2.30
2018-04-28T12:28:07.731Z,2.30
2018-04-28T12:29:07.853Z,2.40
2018-04-28T12:30:08.019Z,2.20
2018-04-28T12:31:08.157Z,2.30
2018-04-28T12:32:08.302Z,2.40
2018-04-28T12:33:08.439Z,2.40
2018-04-28T12:34:08.584Z,2.20
2018-04-28T12:35:08.738Z,2.40
2018-04-28T12:36:08.881Z,2.70
2018-04-28T12:37:09.026Z,2.10
2018-04-28T12:38:09.164Z,2.40
2018-04-28T12:39:09.353Z,2.10
2018-04-28T12:40:09.457Z,2.20
2018-04-28T12:41:09.604Z,2.20
2018-04-28T12:42:09.745Z,2.70
2018-04-28T12:43:09.888Z,2.30
2018-04-28T12:44:10.021Z,2.40
2018-04-28T12:45:10.164Z,2.60
2018-04-28T12:46:10.312Z,2.50
2018-04-28T12:47:10.475Z,2.30
2018-04-28T12:48:10.609Z,2.30
2018-04-28T12:49:10.755Z,2.60
2018-04-28T12:50:10.896Z,2.40
2018-04-28T12:51:11.056Z,2.20
2018-04-28T12:52:11.199Z,2.40
2018-04-28T12:53:11.339Z,2.50
2018-04-28T12:54:11.480Z,2.40
2018-04-28T12:55:11.643Z,2.20
2018-04-28T12:56:11.781Z,2.60
2018-04-28T12:57:11.924Z,2.50
2018-04-28T12:58:12.064Z,2.40
2018-04-28T12:59:12.243Z,2.30
2018-04-28T13:00:12.388Z,2.40
2018-04-28T13:01:12.535Z,2.50
2018-04-28T13:02:12.677Z,2.60
2018-04-28T13:03:12.823Z,2.80
2018-04-28T13:04:12.965Z,2.50
2018-04-28T13:05:13.104Z,2.70
2018-04-28T13:06:13.253Z,2.70
2018-04-28T13:07:13.428Z,2.70
2018-04-28T13:08:13.530Z,2.30
2018-04-28T13:09:13.674Z,2.40
2018-04-28T13:10:13.838Z,2.40
2018-04-28T13:11:13.982Z,2.80
2018-04-28T13:12:14.121Z,2.60
2018-04-28T13:13:14.282Z,2.70
2018-04-28T13:14:14.422Z,2.60
2018-04-28T13:15:14.565Z,2.60
2018-04-28T13:16:14.707Z,2.30
2018-04-28T13:17:14.873Z,2.50
2018-04-28T13:18:15.018Z,2.60
2018-04-28T13:19:15.162Z,2.10
2018-04-28T13:20:15.301Z,2.50
2018-04-28T13:21:15.444Z,2.30
2018-04-28T13:22:15.577Z,2.00